createdAt,value
2018-12-17T00:00:36.875Z,28.97
2018-12-17T00:03:05.625Z,27.00
2018-12-17T00:05:34.340Z,27.80
2018-12-17T00:08:03.377Z,29.63
2018-12-17T00:10:31.927Z,25.63
2018-12-17T00:13:00.495Z,26.30
2018-12-17T00:15:29.059Z,28.70
2018-12-17T00:17:57.635Z,29.67
2018-12-17T00:20:26.231Z,31.43
2018-12-17T00:22:54.820Z,31.60
2018-12-17T00:25:23.431Z,29.20
2018-12-17T00:27:52.015Z,27.83
2018-12-17T00:30:20.598Z,29.40
2018-12-17T00:32:49.171Z,31.53
2018-12-17T00:35:17.734Z,31.50
2018-12-17T00:37:46.311Z,28.33
2018-12-17T00:40:15.027Z,26.50
2018-12-17T00:42:43.623Z,28.43
2018-12-17T00:45:12.183Z,25.90
2018-12-17T00:47:40.766Z,27.87
2018-12-17T00:50:09.376Z,30.13
2018-12-17T00:52:38.087Z,26.80
2018-12-17T00:55:06.888Z,35.40
2018-12-17T00:57:35.479Z,30.40
2018-12-17T01:00:05.435Z,25.33
2018-12-17T01:02:34.041Z,29.30
2018-12-17T01:05:03.141Z,34.00
2018-12-17T01:07:31.719Z,30.13
2018-12-17T01:10:00.283Z,27.87
2018-12-17T01:12:28.859Z,27.90
2018-12-17T01:14:57.401Z,27.03
2018-12-17T01:17:26.009Z,28.90
2018-12-17T01:19:54.597Z,29.00
2018-12-17T01:22:23.196Z,27.63
2018-12-17T01:24:51.776Z,31.47
2018-12-17T01:27:20.384Z,28.97
2018-12-17T01:29:48.960Z,25.83
2018-12-17T01:32:17.529Z,27.00
2018-12-17T01:34:46.112Z,30.53
2018-12-17T01:37:14.703Z,31.03
2018-12-17T01:39:43.272Z,30.50
2018-12-17T01:42:11.868Z,28.40
2018-12-17T01:44:40.519Z,30.03
2018-12-17T01:47:09.135Z,29.70
2018-12-17T01:49:37.713Z,27.90
2018-12-17T01:52:06.298Z,28.23
2018-12-17T01:54:34.843Z,29.97
2018-12-17T01:57:03.427Z,30.17
2018-12-17T01:59:32.000Z,29.27
2018-12-17T02:02:00.616Z,26.73
2018-12-17T02:04:29.421Z,26.40
2018-12-17T02:06:58.000Z,31.90
2018-12-17T02:09:26.575Z,30.63
2018-12-17T02:11:55.183Z,28.07
2018-12-17T02:14:23.755Z,31.13
2018-12-17T02:16:52.338Z,31.00
2018-12-17T02:19:20.911Z,30.63
2018-12-17T02:21:49.479Z,27.07
2018-12-17T02:24:18.212Z,29.30
2018-12-17T02:26:46.783Z,31.60
2018-12-17T02:29:15.389Z,31.77
2018-12-17T02:31:43.970Z,29.70
2018-12-17T02:34:12.547Z,30.60
2018-12-17T02:36:41.151Z,28.70
2018-12-17T02:39:09.711Z,34.43
2018-12-17T02:41:38.295Z,28.70
2018-12-17T02:44:07.112Z,27.80
2018-12-17T02:46:35.715Z,31.20
2018-12-17T02:49:04.313Z,28.50
2018-12-17T02:51:33.036Z,26.73
2018-12-17T02:54:01.714Z,30.23
2018-12-17T02:56:30.302Z,28.80
2018-12-17T02:58:58.872Z,34.37
2018-12-17T03:01:27.519Z,29.17
2018-12-17T03:03:56.067Z,27.57
2018-12-17T03:06:24.673Z,30.43
2018-12-17T03:08:53.255Z,31.83
2018-12-17T03:11:21.848Z,30.97
2018-12-17T03:13:50.410Z,29.50
2018-12-17T03:16:18.980Z,29.77
2018-12-17T03:18:47.543Z,28.00
2018-12-17T03:21:16.143Z,30.10
2018-12-17T03:23:44.692Z,27.93
2018-12-17T03:26:13.280Z,28.07
2018-12-17T03:28:41.823Z,28.63
2018-12-17T03:31:10.394Z,28.40
2018-12-17T03:33:38.975Z,29.97
2018-12-17T03:36:07.569Z,25.57
2018-12-17T03:38:36.172Z,28.37
2018-12-17T03:41:05.015Z,28.07
2018-12-17T03:43:33.574Z,27.73
2018-12-17T03:46:02.412Z,24.53
2018-12-17T03:48:30.975Z,26.73
2018-12-17T03:50:59.569Z,26.87
2018-12-17T03:53:28.141Z,27.07
2018-12-17T03:55:56.731Z,27.70
2018-12-17T03:58:25.275Z,29.87
2018-12-17T04:00:53.874Z,29.27
2018-12-17T04:03:22.470Z,30.30
2018-12-17T04:05:51.055Z,32.73
2018-12-17T04:08:19.588Z,30.17
2018-12-17T04:10:48.163Z,32.37
2018-12-17T04:13:16.708Z,35.00
2018-12-17T04:15:45.291Z,36.50
2018-12-17T04:18:13.835Z,39.37
2018-12-17T04:20:42.423Z,37.60
2018-12-17T04:23:10.972Z,36.73
2018-12-17T04:25:39.566Z,38.73
2018-12-17T04:28:10.196Z,43.27
2018-12-17T04:30:38.787Z,48.07
2018-12-17T04:33:07.328Z,41.00
2018-12-17T04:35:35.908Z,43.00
2018-12-17T04:38:04.468Z,44.87
2018-12-17T04:40:33.046Z,39.73
2018-12-17T04:43:01.616Z,51.50
2018-12-17T04:45:30.219Z,51.63
2018-12-17T04:47:58.784Z,40.23
2018-12-17T04:50:27.363Z,46.97
2018-12-17T04:52:55.923Z,44.33
2018-12-17T04:55:24.507Z,41.53
2018-12-17T04:57:53.327Z,43.20
2018-12-17T05:00:21.952Z,41.53
2018-12-17T05:02:50.551Z,46.53
2018-12-17T05:05:19.412Z,38.87
2018-12-17T05:07:47.972Z,39.80
2018-12-17T05:10:16.714Z,41.97
2018-12-17T05:12:45.286Z,35.40
2018-12-17T05:15:13.899Z,45.57
2018-12-17T05:17:42.447Z,39.73
2018-12-17T05:20:11.077Z,40.33
2018-12-17T05:22:39.631Z,37.77
2018-12-17T05:25:08.315Z,32.87
2018-12-17T05:27:36.931Z,37.27
2018-12-17T05:30:06.762Z,35.23
2018-12-17T05:32:35.324Z,34.47
2018-12-17T05:35:04.244Z,34.23
2018-12-17T05:37:32.815Z,44.03
2018-12-17T05:40:01.782Z,34.83
2018-12-17T05:42:30.499Z,34.93
2018-12-17T05:44:59.064Z,32.43
2018-12-17T05:47:27.644Z,34.67
2018-12-17T05:49:56.225Z,35.30
2018-12-17T05:52:24.825Z,32.60
2018-12-17T05:54:53.403Z,32.90
2018-12-17T05:57:21.982Z,31.33
2018-12-17T05:59:50.571Z,28.57
2018-12-17T06:02:19.131Z,33.33
2018-12-17T06:04:47.760Z,29.13
2018-12-17T06:07:16.329Z,32.67
2018-12-17T06:09:44.924Z,33.47
2018-12-17T06:12:13.527Z,27.13
2018-12-17T06:14:42.103Z,33.00
2018-12-17T06:17:10.665Z,28.53
2018-12-17T06:19:39.257Z,31.67
2018-12-17T06:22:07.834Z,28.67
2018-12-17T06:24:36.423Z,29.63
2018-12-17T06:27:05.025Z,29.87
2018-12-17T06:29:35.681Z,26.57
2018-12-17T06:32:04.343Z,29.83
2018-12-17T06:34:33.074Z,27.70
2018-12-17T06:37:01.644Z,28.00
2018-12-17T06:39:30.279Z,30.67
2018-12-17T06:41:58.870Z,29.43
2018-12-17T06:44:27.467Z,28.73
2018-12-17T06:47:02.379Z,30.77
2018-12-17T06:49:31.064Z,32.43
2018-12-17T06:51:59.859Z,26.77
2018-12-17T06:54:28.610Z,32.03
2018-12-17T06:56:57.288Z,27.70
2018-12-17T06:59:25.959Z,33.13
2018-12-17T07:01:54.523Z,29.43
2018-12-17T07:04:23.111Z,29.83
2018-12-17T07:06:51.670Z,30.33
2018-12-17T07:09:20.255Z,29.93
2018-12-17T07:11:48.815Z,35.93
2018-12-17T07:14:17.418Z,32.73
2018-12-17T07:16:46.000Z,33.40
2018-12-17T07:19:14.575Z,36.37
2018-12-17T07:21:43.272Z,31.90
2018-12-17T07:24:11.867Z,30.40
2018-12-17T07:26:40.455Z,34.20
2018-12-17T07:29:09.035Z,34.67
2018-12-17T07:31:40.416Z,35.67
2018-12-17T07:34:09.006Z,38.40
2018-12-17T07:36:37.571Z,40.87
2018-12-17T07:39:08.887Z,29.60
2018-12-17T07:41:37.744Z,34.33
2018-12-17T07:44:06.356Z,43.10
2018-12-17T07:46:34.921Z,42.77
2018-12-17T07:49:03.507Z,44.97
2018-12-17T07:51:32.087Z,41.23
2018-12-17T07:54:00.688Z,47.00
2018-12-17T07:56:29.231Z,44.90
2018-12-17T07:58:57.814Z,45.97
2018-12-17T08:01:26.368Z,44.77
2018-12-17T08:03:54.961Z,44.37
2018-12-17T08:06:23.525Z,39.87
2018-12-17T08:08:52.100Z,43.87
2018-12-17T08:11:20.681Z,49.67
2018-12-17T08:13:49.298Z,46.80
2018-12-17T08:16:17.877Z,50.37
2018-12-17T08:18:46.462Z,49.63
2018-12-17T08:21:15.027Z,48.47
2018-12-17T08:23:43.611Z,44.77
2018-12-17T08:26:12.159Z,44.70
2018-12-17T08:28:40.752Z,49.10
2018-12-17T08:31:09.333Z,44.47
2018-12-17T08:33:37.939Z,46.67
2018-12-17T08:36:06.561Z,46.07
2018-12-17T08:38:35.170Z,42.03
2018-12-17T08:41:03.748Z,43.53
2018-12-17T08:43:32.342Z,41.10
2018-12-17T08:46:00.904Z,37.27
2018-12-17T08:48:29.495Z,38.97
2018-12-17T08:50:58.059Z,35.80
2018-12-17T08:53:26.631Z,35.83
2018-12-17T08:55:55.200Z,46.07
2018-12-17T08:58:23.919Z,41.50
2018-12-17T09:00:52.512Z,42.47
2018-12-17T09:03:21.097Z,39.23
2018-12-17T09:05:49.674Z,43.10
2018-12-17T09:08:18.247Z,40.53
2018-12-17T09:10:46.830Z,43.00
2018-12-17T09:13:15.439Z,42.83
2018-12-17T09:15:44.031Z,36.33
2018-12-17T09:18:12.639Z,42.27
2018-12-17T09:20:41.231Z,36.63
2018-12-17T09:23:09.835Z,42.27
2018-12-17T09:25:38.519Z,35.53
2018-12-17T09:28:07.249Z,39.33
2018-12-17T09:30:41.300Z,38.63
2018-12-17T09:33:06.479Z,36.77
2018-12-17T09:35:35.039Z,37.30
2018-12-17T09:38:03.632Z,33.50
2018-12-17T09:40:32.339Z,32.53
2018-12-17T09:43:01.373Z,26.67
2018-12-17T09:45:29.931Z,26.70
2018-12-17T09:47:58.516Z,26.63
2018-12-17T09:50:27.108Z,28.63
2018-12-17T09:52:55.679Z,25.07
2018-12-17T09:55:24.231Z,25.87
2018-12-17T09:57:52.815Z,21.67
2018-12-17T10:00:25.433Z,22.10
2018-12-17T10:02:52.037Z,19.67
2018-12-17T10:05:20.587Z,17.67
2018-12-17T10:07:49.192Z,16.63
2018-12-17T10:10:17.751Z,18.80
2018-12-17T10:12:46.344Z,17.83
2018-12-17T10:15:14.911Z,16.73
2018-12-17T10:17:43.489Z,17.03
2018-12-17T10:20:12.425Z,15.33
2018-12-17T10:22:41.002Z,16.73
2018-12-17T10:25:09.607Z,16.13
2018-12-17T10:27:38.184Z,16.53
2018-12-17T10:30:07.293Z,15.07
2018-12-17T10:32:35.881Z,14.33
2018-12-17T10:35:04.820Z,16.13
2018-12-17T10:37:33.411Z,14.00
2018-12-17T10:40:01.978Z,13.33
2018-12-17T10:42:30.585Z,14.37
2018-12-17T10:44:59.205Z,16.33
2018-12-17T10:47:27.783Z,15.10
2018-12-17T10:49:56.351Z,18.83
2018-12-17T10:52:24.939Z,14.07
2018-12-17T10:54:53.496Z,13.43
2018-12-17T10:57:22.074Z,14.70
2018-12-17T10:59:50.632Z,15.77
2018-12-17T11:02:24.302Z,15.13
2018-12-17T11:04:56.795Z,14.40
2018-12-17T11:07:25.396Z,15.00
2018-12-17T11:09:53.971Z,14.63
2018-12-17T11:12:22.608Z,14.13
2018-12-17T11:14:51.172Z,15.30
2018-12-17T11:17:19.768Z,14.93
2018-12-17T11:19:48.356Z,14.37
2018-12-17T11:22:17.092Z,14.07
2018-12-17T11:24:45.647Z,14.70
2018-12-17T11:27:14.244Z,13.20
2018-12-17T11:29:42.863Z,14.93
2018-12-17T11:32:11.661Z,12.63
2018-12-17T11:34:40.420Z,12.93
2018-12-17T11:37:09.028Z,12.83
2018-12-17T11:39:37.576Z,15.53
2018-12-17T11:42:06.185Z,12.63
2018-12-17T11:44:34.731Z,13.43
2018-12-17T11:47:03.339Z,13.10
2018-12-17T11:49:31.904Z,11.77
2018-12-17T11:52:01.246Z,11.20
2018-12-17T11:54:30.016Z,11.20
2018-12-17T11:59:12.575Z,11.73
2018-12-17T12:01:41.286Z,11.53
2018-12-17T12:04:09.832Z,11.70
2018-12-17T12:06:38.446Z,10.70
2018-12-17T12:09:07.342Z,10.10
2018-12-17T12:11:35.951Z,13.10
2018-12-17T12:14:04.573Z,10.17
2018-12-17T12:16:33.153Z,10.73
2018-12-17T12:19:01.709Z,9.73
2018-12-17T12:21:30.304Z,10.83
2018-12-17T12:23:58.859Z,10.37
2018-12-17T12:26:27.453Z,10.73
2018-12-17T12:28:56.087Z,11.40
2018-12-17T12:31:24.667Z,10.13
2018-12-17T12:33:53.238Z,10.37
2018-12-17T12:36:21.834Z,12.83
2018-12-17T12:38:50.406Z,9.47
2018-12-17T12:41:18.995Z,11.03
2018-12-17T12:43:47.549Z,9.43
2018-12-17T12:46:16.344Z,11.10
2018-12-17T12:48:44.895Z,9.03
2018-12-17T12:51:13.470Z,9.57
2018-12-17T12:53:42.063Z,9.20
2018-12-17T12:56:10.648Z,9.53
2018-12-17T12:58:39.224Z,8.43
2018-12-17T13:01:07.997Z,8.50
2018-12-17T13:03:36.591Z,9.30
2018-12-17T13:06:11.701Z,9.10
2018-12-17T13:08:40.288Z,8.50
2018-12-17T13:11:08.857Z,8.43
2018-12-17T13:13:37.555Z,22.40
2018-12-17T13:16:06.135Z,13.47
2018-12-17T13:18:41.213Z,8.57
2018-12-17T13:21:09.827Z,7.77
2018-12-17T13:23:38.373Z,8.23
2018-12-17T13:26:07.000Z,7.60
2018-12-17T13:28:35.544Z,9.83
2018-12-17T13:31:04.144Z,7.83
2018-12-17T13:33:32.695Z,8.33
2018-12-17T13:36:01.290Z,9.20
2018-12-17T13:38:29.863Z,9.00
2018-12-17T13:40:58.423Z,8.43
2018-12-17T13:43:26.963Z,9.17
2018-12-17T13:45:55.547Z,8.67
2018-12-17T13:48:24.099Z,8.63
2018-12-17T13:50:52.689Z,8.83
2018-12-17T13:53:26.366Z,8.80
2018-12-17T13:55:54.945Z,8.17
2018-12-17T13:58:23.509Z,9.27
2018-12-17T14:00:52.103Z,8.07
2018-12-17T14:03:20.667Z,8.13
2018-12-17T14:05:49.258Z,9.03
2018-12-17T14:08:17.811Z,14.13
2018-12-17T14:10:51.279Z,8.20
2018-12-17T14:13:19.848Z,7.93
2018-12-17T14:15:51.308Z,7.67
2018-12-17T14:18:25.544Z,8.03
2018-12-17T14:20:59.488Z,9.30
2018-12-17T14:23:28.048Z,8.63
2018-12-17T14:25:56.644Z,9.33
2018-12-17T14:28:25.195Z,8.53
2018-12-17T14:30:53.908Z,7.87
2018-12-17T14:33:22.477Z,10.20
2018-12-17T14:35:56.488Z,9.00
2018-12-17T14:38:25.047Z,7.77
2018-12-17T14:40:53.689Z,9.50
2018-12-17T14:43:23.235Z,8.43
2018-12-17T14:45:51.814Z,8.27
2018-12-17T14:48:20.355Z,9.70
2018-12-17T14:50:48.940Z,9.73
2018-12-17T14:53:17.520Z,7.77
2018-12-17T14:55:46.121Z,7.50
2018-12-17T14:58:14.673Z,9.73
2018-12-17T15:00:43.238Z,7.87
2018-12-17T15:03:11.801Z,10.17
2018-12-17T15:05:40.387Z,7.87
2018-12-17T15:08:08.979Z,7.67
2018-12-17T15:10:37.559Z,9.20
2018-12-17T15:13:06.121Z,10.30
2018-12-17T15:15:34.707Z,7.93
2018-12-17T15:18:05.338Z,8.20
2018-12-17T15:20:33.904Z,7.37
2018-12-17T15:23:02.453Z,9.10
2018-12-17T15:25:31.053Z,8.67
2018-12-17T15:27:59.597Z,7.23
2018-12-17T15:30:28.167Z,7.43
2018-12-17T15:32:56.706Z,8.47
2018-12-17T15:35:25.311Z,8.67
2018-12-17T15:37:53.998Z,8.40
2018-12-17T15:40:22.782Z,9.03
2018-12-17T15:42:51.417Z,11.90
2018-12-17T15:45:19.985Z,8.43
2018-12-17T15:47:48.547Z,8.77
2018-12-17T15:50:17.163Z,10.57
2018-12-17T15:52:45.719Z,8.70
2018-12-17T15:55:14.304Z,8.47
2018-12-17T15:57:42.871Z,11.13
2018-12-17T16:00:15.780Z,9.77
2018-12-17T16:02:46.883Z,10.15
2018-12-17T16:05:18.153Z,10.10
2018-12-17T16:07:48.945Z,9.27
2018-12-17T16:10:19.829Z,12.10
2018-12-17T16:12:50.577Z,11.70
2018-12-17T16:15:21.861Z,12.97
2018-12-17T16:17:52.675Z,11.57
2018-12-17T16:20:23.422Z,11.63
2018-12-17T16:22:54.149Z,12.10
2018-12-17T16:25:25.148Z,12.60
2018-12-17T16:27:55.994Z,11.67
2018-12-17T16:30:26.662Z,16.23
2018-12-17T16:32:57.422Z,13.67
2018-12-17T16:35:28.126Z,12.27
2018-12-17T16:37:58.897Z,11.70
2018-12-17T16:40:29.736Z,13.17
2018-12-17T16:43:00.524Z,19.30
2018-12-17T16:45:31.153Z,18.63
2018-12-17T16:48:02.016Z,14.90
2018-12-17T16:50:32.692Z,18.63
2018-12-17T16:53:03.477Z,17.43
2018-12-17T16:55:34.547Z,19.17
2018-12-17T16:58:05.416Z,16.17
2018-12-17T17:00:36.156Z,15.77
2018-12-17T17:03:07.017Z,14.00
2018-12-17T17:05:37.652Z,14.57
2018-12-17T17:08:08.471Z,19.53
2018-12-17T17:10:39.059Z,16.37
2018-12-17T17:13:10.675Z,17.50
2018-12-17T17:15:41.338Z,17.47
2018-12-17T17:18:12.322Z,15.40
2018-12-17T17:20:43.030Z,17.53
2018-12-17T17:23:13.810Z,16.13
2018-12-17T17:25:42.462Z,25.50
2018-12-17T17:28:11.076Z,18.13
2018-12-17T17:30:39.624Z,20.23
2018-12-17T17:33:08.241Z,17.63
2018-12-17T17:35:36.800Z,17.10
2018-12-17T17:38:05.427Z,13.60
2018-12-17T17:40:34.036Z,13.73
2018-12-17T17:43:03.316Z,16.67
2018-12-17T17:45:31.902Z,14.63
2018-12-17T17:48:00.507Z,14.00
2018-12-17T17:50:29.259Z,15.27
2018-12-17T17:52:57.863Z,14.27
2018-12-17T17:55:26.477Z,15.13
2018-12-17T17:57:55.067Z,13.03
2018-12-17T18:00:23.675Z,15.00
2018-12-17T18:02:52.283Z,14.13
2018-12-17T18:05:20.852Z,13.80
2018-12-17T18:07:49.448Z,14.03
2018-12-17T18:10:18.180Z,14.00
2018-12-17T18:12:46.830Z,14.27
2018-12-17T18:15:15.411Z,13.33
2018-12-17T18:17:44.023Z,14.93
2018-12-17T18:20:12.905Z,13.27
2018-12-17T18:22:41.518Z,14.10
2018-12-17T18:25:10.224Z,13.57
2018-12-17T18:27:38.823Z,14.33
2018-12-17T18:30:07.712Z,15.23
2018-12-17T18:32:36.307Z,16.27
2018-12-17T18:35:05.051Z,14.97
2018-12-17T18:37:33.698Z,17.30
2018-12-17T18:40:02.429Z,14.33
2018-12-17T18:42:31.060Z,15.67
2018-12-17T18:44:59.652Z,13.57
2018-12-17T18:47:28.274Z,15.77
2018-12-17T18:49:56.845Z,15.57
2018-12-17T18:52:25.491Z,15.53
2018-12-17T18:54:54.043Z,16.47
2018-12-17T18:57:22.656Z,19.67
2018-12-17T18:59:51.234Z,18.67
2018-12-17T19:02:19.831Z,16.93
2018-12-17T19:04:49.167Z,20.13
2018-12-17T19:07:17.816Z,19.43
2018-12-17T19:09:46.413Z,22.13
2018-12-17T19:12:15.023Z,22.93
2018-12-17T19:14:43.609Z,18.90
2018-12-17T19:17:12.219Z,18.17
2018-12-17T19:19:41.262Z,18.90
2018-12-17T19:22:09.861Z,20.87
2018-12-17T19:24:38.463Z,21.47
2018-12-17T19:27:07.063Z,32.97
2018-12-17T19:29:35.660Z,25.57
2018-12-17T19:32:04.240Z,20.07
2018-12-17T19:34:32.804Z,22.77
2018-12-17T19:37:01.441Z,48.57
2018-12-17T19:39:30.015Z,52.40
2018-12-17T19:41:58.717Z,28.93
2018-12-17T19:44:27.360Z,19.10
2018-12-17T19:46:55.983Z,19.87
2018-12-17T19:49:24.547Z,19.83
2018-12-17T19:51:53.239Z,18.77
2018-12-17T19:54:21.811Z,21.33
2018-12-17T19:56:50.456Z,18.30
2018-12-17T19:59:19.028Z,17.87
2018-12-17T20:01:47.672Z,19.73
2018-12-17T20:04:16.512Z,19.77
2018-12-17T20:06:45.084Z,19.47
2018-12-17T20:09:20.037Z,18.70
2018-12-17T20:11:48.666Z,18.80
2018-12-17T20:14:17.247Z,20.27
2018-12-17T20:16:45.938Z,21.53
2018-12-17T20:19:14.570Z,19.53
2018-12-17T20:21:43.146Z,19.73
2018-12-17T20:24:11.731Z,22.27
2018-12-17T20:26:40.303Z,19.57
2018-12-17T20:29:08.897Z,19.57
2018-12-17T20:31:37.657Z,21.63
2018-12-17T20:34:06.308Z,19.73
2018-12-17T20:36:35.023Z,19.73
2018-12-17T20:39:05.059Z,19.27
2018-12-17T20:41:33.694Z,22.07
2018-12-17T20:44:02.254Z,21.00
2018-12-17T20:46:30.880Z,21.53
2018-12-17T20:48:59.476Z,23.37
2018-12-17T20:51:28.063Z,22.27
2018-12-17T20:53:56.729Z,21.83
2018-12-17T20:56:25.334Z,26.73
2018-12-17T20:58:53.922Z,23.17
2018-12-17T21:01:22.540Z,23.17
2018-12-17T21:03:51.136Z,21.47
2018-12-17T21:06:19.728Z,23.07
2018-12-17T21:08:48.299Z,22.83
2018-12-17T21:11:16.895Z,22.53
2018-12-17T21:13:45.470Z,19.53
2018-12-17T21:16:14.095Z,23.93
2018-12-17T21:18:42.703Z,27.93
2018-12-17T21:21:11.288Z,22.23
2018-12-17T21:23:40.032Z,21.17
2018-12-17T21:26:08.636Z,23.67
2018-12-17T21:28:37.219Z,22.07
2018-12-17T21:31:05.797Z,36.13
2018-12-17T21:33:34.345Z,28.60
2018-12-17T21:36:02.980Z,23.20
2018-12-17T21:38:31.543Z,23.13
2018-12-17T21:41:00.277Z,56.17
2018-12-17T21:43:28.919Z,38.40
2018-12-17T21:45:57.940Z,22.40
2018-12-17T21:48:26.543Z,34.30
2018-12-17T21:50:55.110Z,23.73
2018-12-17T21:53:23.735Z,24.10
2018-12-17T21:55:52.319Z,30.60
2018-12-17T21:58:20.867Z,91.20
2018-12-17T22:00:49.475Z,36.20
2018-12-17T22:03:18.089Z,18.43
2018-12-17T22:05:46.683Z,45.47
2018-12-17T22:08:15.269Z,34.47
2018-12-17T22:10:43.868Z,24.47
2018-12-17T22:13:12.463Z,34.80
2018-12-17T22:15:41.043Z,35.07
2018-12-17T22:18:10.036Z,62.77
2018-12-17T22:20:38.654Z,35.40
2018-12-17T22:23:07.202Z,20.13
2018-12-17T22:25:35.790Z,23.10
2018-12-17T22:28:04.472Z,33.03
2018-12-17T22:30:33.107Z,26.93
2018-12-17T22:33:01.668Z,22.00
2018-12-17T22:35:30.264Z,23.50
2018-12-17T22:37:58.845Z,19.83
2018-12-17T22:40:27.438Z,23.90
2018-12-17T22:42:55.984Z,18.17
2018-12-17T22:45:24.579Z,21.63
2018-12-17T22:47:56.851Z,21.13
2018-12-17T22:50:25.468Z,17.93
2018-12-17T22:52:54.032Z,16.63
2018-12-17T22:55:22.599Z,19.73
2018-12-17T22:57:51.161Z,17.80
2018-12-17T23:00:20.189Z,15.67
2018-12-17T23:02:48.828Z,17.60
2018-12-17T23:05:17.393Z,14.40
2018-12-17T23:07:45.976Z,16.43
2018-12-17T23:10:25.629Z,28.37
2018-12-17T23:13:05.437Z,16.23
2018-12-17T23:15:45.095Z,23.50
2018-12-17T23:18:12.551Z,16.63
2018-12-17T23:20:46.120Z,15.43
2018-12-17T23:23:14.816Z,18.23
2018-12-17T23:25:43.403Z,25.60
2018-12-17T23:28:12.007Z,22.90
2018-12-17T23:30:40.560Z,20.17
2018-12-17T23:33:09.136Z,43.50
2018-12-17T23:35:37.767Z,31.00
2018-12-17T23:38:06.376Z,19.37
2018-12-17T23:40:34.959Z,13.77
2018-12-17T23:43:03.712Z,13.87
2018-12-17T23:45:32.325Z,14.00
2018-12-17T23:48:00.899Z,24.07
2018-12-17T23:50:29.475Z,18.77
2018-12-17T23:52:58.047Z,16.90
2018-12-17T23:55:26.627Z,15.93
2018-12-17T23:57:55.415Z,13.73
